createdAt,value
2022-12-15T00:00:39.612Z,21.50
2022-12-15T00:03:45.508Z,20.90
2022-12-15T00:06:32.234Z,21.60
2022-12-15T00:09:20.721Z,21.40
2022-12-15T00:12:07.634Z,23.30
2022-12-15T00:14:53.892Z,19.80
2022-12-15T00:17:40.463Z,21.10
2022-12-15T00:20:27.605Z,22.30
2022-12-15T00:23:14.119Z,23.00
2022-12-15T00:26:02.806Z,20.20
2022-12-15T00:28:49.223Z,20.70
2022-12-15T00:31:35.656Z,23.80
2022-12-15T00:34:22.189Z,20.20
2022-12-15T00:37:09.149Z,19.90
2022-12-15T00:39:37.251Z,25.10
2022-12-15T00:42:05.300Z,24.80
2022-12-15T00:44:33.356Z,24.50
2022-12-15T00:47:01.670Z,19.70
2022-12-15T00:49:49.857Z,24.10
2022-12-15T00:52:39.551Z,25.50
2022-12-15T00:55:26.423Z,25.20
2022-12-15T00:58:12.692Z,21.90
2022-12-15T01:00:59.509Z,23.50
2022-12-15T01:03:46.154Z,25.80
2022-12-15T01:06:35.647Z,27.70
2022-12-15T01:09:24.181Z,27.30
2022-12-15T01:12:11.792Z,22.00
2022-12-15T01:14:58.777Z,24.00
2022-12-15T01:17:45.297Z,24.20
2022-12-15T01:20:23.372Z,24.90
2022-12-15T01:22:54.894Z,26.80
2022-12-15T01:25:24.925Z,26.70
2022-12-15T01:27:52.938Z,25.40
2022-12-15T01:30:23.986Z,24.00
2022-12-15T01:32:54.949Z,21.90
2022-12-15T01:35:22.948Z,25.00
2022-12-15T01:37:50.892Z,23.60
2022-12-15T01:40:39.449Z,24.90
2022-12-15T01:43:23.448Z,25.50
2022-12-15T01:46:10.604Z,28.30
2022-12-15T01:48:47.075Z,26.00
2022-12-15T01:51:24.352Z,23.40
2022-12-15T01:54:14.144Z,25.00
2022-12-15T01:56:46.538Z,21.80
2022-12-15T01:59:21.176Z,24.60
2022-12-15T02:01:49.722Z,28.60
2022-12-15T02:04:21.609Z,25.70
2022-12-15T02:06:50.700Z,25.40
2022-12-15T02:09:21.123Z,27.40
2022-12-15T02:12:01.099Z,27.00
2022-12-15T02:14:45.574Z,22.70
2022-12-15T02:17:23.073Z,24.30
2022-12-15T02:20:06.125Z,25.50
2022-12-15T02:22:55.339Z,24.50
2022-12-15T02:25:44.662Z,24.70
2022-12-15T02:28:16.176Z,24.00
2022-12-15T02:31:08.732Z,24.80
2022-12-15T02:33:44.684Z,26.60
2022-12-15T02:36:23.248Z,26.80
2022-12-15T02:38:51.508Z,25.20
2022-12-15T02:41:53.096Z,24.80
2022-12-15T02:44:29.464Z,26.50
2022-12-15T02:47:10.101Z,30.50
2022-12-15T02:49:49.818Z,24.60
2022-12-15T02:52:39.980Z,25.00
2022-12-15T02:55:58.802Z,24.00
2022-12-15T02:58:53.876Z,25.60
2022-12-15T03:01:24.723Z,30.30
2022-12-15T03:03:53.765Z,25.20
2022-12-15T03:06:24.393Z,25.30
2022-12-15T03:08:52.632Z,30.10
2022-12-15T03:11:20.607Z,27.10
2022-12-15T03:13:49.825Z,33.70
2022-12-15T03:16:17.974Z,30.10
2022-12-15T03:18:46.386Z,28.20
2022-12-15T03:21:14.253Z,28.20
2022-12-15T03:23:42.273Z,29.30
2022-12-15T03:26:10.265Z,29.60
2022-12-15T03:28:38.329Z,29.20
2022-12-15T03:31:06.354Z,31.20
2022-12-15T03:33:35.098Z,27.40
2022-12-15T03:36:03.649Z,27.90
2022-12-15T03:38:31.584Z,28.50
2022-12-15T03:40:59.596Z,30.20
2022-12-15T03:43:27.623Z,27.80
2022-12-15T03:45:55.837Z,27.70
2022-12-15T03:48:24.441Z,31.20
2022-12-15T03:50:52.489Z,30.70
2022-12-15T03:53:21.014Z,28.00
2022-12-15T03:55:48.993Z,27.50
2022-12-15T03:58:16.994Z,29.70
2022-12-15T04:00:45.156Z,29.80
2022-12-15T04:03:13.168Z,31.00
2022-12-15T04:05:41.390Z,34.30
2022-12-15T04:08:09.327Z,32.20
2022-12-15T04:10:37.255Z,32.20
2022-12-15T04:13:10.963Z,32.50
2022-12-15T04:15:40.360Z,33.30
2022-12-15T04:18:10.678Z,35.70
2022-12-15T04:20:40.248Z,37.00
2022-12-15T04:23:08.585Z,32.00
2022-12-15T04:25:56.284Z,35.50
2022-12-15T04:28:42.899Z,34.90
2022-12-15T04:31:42.386Z,38.30
2022-12-15T04:34:35.172Z,35.30
2022-12-15T04:37:22.029Z,35.40
2022-12-15T04:40:10.792Z,35.00
2022-12-15T04:43:02.288Z,36.10
2022-12-15T04:45:49.028Z,42.80
2022-12-15T04:48:35.637Z,77.30
2022-12-15T04:51:24.036Z,35.50
2022-12-15T04:54:10.844Z,34.70
2022-12-15T04:56:57.219Z,35.70
2022-12-15T04:59:43.686Z,37.30
2022-12-15T05:02:30.029Z,36.60
2022-12-15T05:05:17.291Z,33.50
2022-12-15T05:08:04.920Z,40.70
2022-12-15T05:10:51.816Z,35.20
2022-12-15T05:13:39.447Z,32.20
2022-12-15T05:16:26.318Z,32.20
2022-12-15T05:19:12.693Z,46.10
2022-12-15T05:21:59.594Z,38.60
2022-12-15T05:24:46.221Z,36.40
2022-12-15T05:27:32.975Z,37.40
2022-12-15T05:30:20.569Z,42.60
2022-12-15T05:32:49.856Z,52.90
2022-12-15T05:35:18.357Z,41.40
2022-12-15T05:37:47.251Z,39.50
2022-12-15T05:40:17.412Z,37.30
2022-12-15T05:42:50.286Z,40.60
2022-12-15T05:45:18.443Z,40.40
2022-12-15T05:47:52.065Z,40.20
2022-12-15T05:50:22.156Z,42.00
2022-12-15T05:52:50.436Z,41.40
2022-12-15T05:55:19.521Z,43.30
2022-12-15T05:57:52.657Z,44.80
2022-12-15T06:00:22.108Z,40.00
2022-12-15T06:02:51.110Z,40.50
2022-12-15T06:05:19.211Z,44.10
2022-12-15T06:07:47.402Z,42.20
2022-12-15T06:10:16.233Z,36.40
2022-12-15T06:12:44.240Z,34.20
2022-12-15T06:15:12.302Z,38.20
2022-12-15T06:17:40.438Z,34.90
2022-12-15T06:20:09.659Z,38.80
2022-12-15T06:22:38.466Z,40.90
2022-12-15T06:25:08.090Z,37.90
2022-12-15T06:27:38.361Z,34.60
2022-12-15T06:30:06.903Z,36.10
2022-12-15T06:32:36.774Z,37.10
2022-12-15T06:35:05.503Z,52.10
2022-12-15T06:37:33.474Z,56.40
2022-12-15T06:40:01.631Z,57.70
2022-12-15T06:42:30.205Z,60.30
2022-12-15T06:44:58.358Z,59.70
2022-12-15T06:47:26.392Z,53.70
2022-12-15T06:49:55.986Z,50.10
2022-12-15T06:52:23.942Z,56.00
2022-12-15T06:54:52.056Z,48.70
2022-12-15T06:57:20.342Z,47.50
2022-12-15T06:59:49.253Z,45.90
2022-12-15T07:02:19.195Z,53.50
2022-12-15T07:04:50.086Z,44.00
2022-12-15T07:07:18.149Z,45.70
2022-12-15T07:09:47.836Z,41.10
2022-12-15T07:12:20.399Z,38.00
2022-12-15T07:14:53.388Z,42.00
2022-12-15T07:17:22.377Z,32.50
2022-12-15T07:19:51.583Z,44.30
2022-12-15T07:22:21.091Z,40.60
2022-12-15T07:24:51.246Z,41.90
2022-12-15T07:27:19.317Z,41.30
2022-12-15T07:29:49.695Z,43.10
2022-12-15T07:32:18.356Z,39.70
2022-12-15T07:34:46.771Z,37.90
2022-12-15T07:37:18.875Z,33.00
2022-12-15T07:39:47.074Z,44.20
2022-12-15T07:42:14.964Z,39.40
2022-12-15T07:44:44.431Z,49.20
2022-12-15T07:47:12.980Z,48.30
2022-12-15T07:49:41.812Z,45.40
2022-12-15T07:52:09.972Z,42.60
2022-12-15T07:54:39.490Z,41.80
2022-12-15T07:57:07.692Z,51.50
2022-12-15T07:59:36.268Z,40.60
2022-12-15T08:02:06.509Z,56.80
2022-12-15T08:04:34.758Z,49.10
2022-12-15T08:07:04.616Z,50.10
2022-12-15T08:09:33.367Z,41.70
2022-12-15T08:12:02.344Z,38.80
2022-12-15T08:14:32.561Z,36.60
2022-12-15T08:17:01.045Z,46.20
2022-12-15T08:19:30.828Z,47.20
2022-12-15T08:21:58.873Z,37.70
2022-12-15T08:24:27.198Z,38.00
2022-12-15T08:26:55.913Z,37.40
2022-12-15T08:29:50.191Z,45.00
2022-12-15T08:32:13.064Z,36.70
2022-12-15T08:34:42.395Z,36.50
2022-12-15T08:37:11.082Z,41.60
2022-12-15T08:39:40.108Z,41.20
2022-12-15T08:42:09.051Z,36.80
2022-12-15T08:44:48.770Z,43.60
2022-12-15T08:47:50.618Z,38.30
2022-12-15T08:50:27.036Z,39.60
2022-12-15T08:56:04.535Z,40.90
2022-12-15T08:58:34.375Z,39.30
2022-12-15T09:01:06.826Z,40.10
2022-12-15T09:03:36.627Z,39.10
2022-12-15T09:06:06.822Z,45.90
2022-12-15T09:08:35.164Z,39.80
2022-12-15T09:11:07.677Z,63.00
2022-12-15T09:13:39.981Z,50.70
2022-12-15T09:16:16.091Z,41.20
2022-12-15T09:18:47.828Z,37.80
2022-12-15T09:21:17.532Z,36.50
2022-12-15T09:23:52.070Z,37.50
2022-12-15T09:26:23.490Z,42.50
2022-12-15T09:28:56.449Z,40.70
2022-12-15T09:31:30.959Z,38.40
2022-12-15T09:34:00.697Z,37.40
2022-12-15T09:36:30.914Z,40.10
2022-12-15T09:38:59.744Z,44.40
2022-12-15T09:41:31.813Z,43.30
2022-12-15T09:44:15.941Z,38.10
2022-12-15T09:46:51.189Z,40.20
2022-12-15T09:49:30.889Z,41.30
2022-12-15T09:52:10.914Z,44.90
2022-12-15T09:54:42.318Z,44.50
2022-12-15T09:57:25.697Z,38.60
2022-12-15T10:00:08.429Z,32.40
2022-12-15T10:02:55.837Z,33.60
2022-12-15T10:06:06.124Z,43.20
2022-12-15T10:08:30.467Z,43.80
2022-12-15T10:11:24.604Z,42.70
2022-12-15T10:14:15.196Z,39.20
2022-12-15T10:17:07.025Z,38.30
2022-12-15T10:20:25.510Z,42.40
2022-12-15T10:23:12.433Z,45.80
2022-12-15T10:25:47.286Z,44.40
2022-12-15T10:28:37.981Z,65.40
2022-12-15T10:31:06.309Z,49.30
2022-12-15T10:33:47.057Z,49.90
2022-12-15T10:36:17.299Z,58.00
2022-12-15T10:41:36.296Z,79.10
2022-12-15T10:44:30.279Z,77.80
2022-12-15T10:47:09.690Z,68.20
2022-12-15T10:49:38.202Z,73.10
2022-12-15T10:52:18.997Z,70.70
2022-12-15T10:54:50.023Z,70.20
2022-12-15T10:57:27.918Z,53.70
2022-12-15T11:00:19.938Z,45.40
2022-12-15T11:02:48.570Z,45.40
2022-12-15T11:05:20.912Z,42.30
2022-12-15T11:07:51.892Z,39.80
2022-12-15T11:10:23.401Z,40.60
2022-12-15T11:13:13.714Z,65.70
2022-12-15T11:15:50.724Z,36.10
2022-12-15T11:18:59.823Z,42.40
2022-12-15T11:21:32.966Z,32.50
2022-12-15T11:24:29.752Z,46.40
2022-12-15T11:27:07.126Z,39.80
2022-12-15T11:30:16.617Z,38.10
2022-12-15T11:32:48.893Z,40.90
2022-12-15T11:35:23.553Z,36.90
2022-12-15T11:38:04.491Z,42.10
2022-12-15T11:40:43.728Z,26.90
2022-12-15T11:43:15.434Z,35.00
2022-12-15T11:46:02.404Z,36.80
2022-12-15T11:49:40.991Z,38.70
2022-12-15T11:52:55.945Z,25.20
2022-12-15T11:55:41.185Z,35.80
2022-12-15T11:58:42.707Z,36.10
2022-12-15T12:01:58.797Z,51.90
2022-12-15T12:05:13.845Z,32.20
2022-12-15T12:07:54.233Z,29.30
2022-12-15T12:10:39.370Z,37.50
2022-12-15T12:13:33.419Z,34.00
2022-12-15T12:16:16.922Z,26.80
2022-12-15T12:18:50.675Z,29.50
2022-12-15T12:21:26.878Z,33.00
2022-12-15T12:24:04.715Z,27.60
2022-12-15T12:26:40.600Z,30.80
2022-12-15T12:29:33.312Z,31.20
2022-12-15T12:32:05.410Z,31.10
2022-12-15T12:34:37.978Z,28.50
2022-12-15T12:37:44.661Z,31.40
2022-12-15T12:40:19.704Z,32.60
2022-12-15T12:42:57.536Z,36.00
2022-12-15T12:45:32.554Z,31.20
2022-12-15T12:48:14.151Z,31.30
2022-12-15T12:50:43.591Z,31.90
2022-12-15T12:53:35.070Z,31.90
2022-12-15T12:56:04.128Z,38.90
2022-12-15T12:58:42.426Z,37.50
2022-12-15T13:01:10.807Z,35.70
2022-12-15T13:03:40.656Z,40.50
2022-12-15T13:06:36.710Z,42.30
2022-12-15T13:09:24.257Z,36.40
2022-12-15T13:12:03.191Z,35.50
2022-12-15T13:14:40.607Z,47.50
2022-12-15T13:17:32.366Z,34.50
2022-12-15T13:20:16.266Z,33.70
2022-12-15T13:22:46.954Z,37.00
2022-12-15T13:25:42.555Z,39.10
2022-12-15T13:28:28.088Z,35.10
2022-12-15T13:34:11.502Z,46.60
2022-12-15T13:36:40.334Z,42.80
2022-12-15T13:39:12.127Z,46.60
2022-12-15T13:42:15.315Z,41.80
2022-12-15T13:44:44.389Z,38.60
2022-12-15T13:47:32.055Z,42.70
2022-12-15T13:50:14.754Z,38.20
2022-12-15T13:55:51.142Z,34.10
2022-12-15T13:58:21.817Z,37.90
2022-12-15T14:00:56.374Z,46.30
2022-12-15T14:03:24.705Z,46.30
2022-12-15T14:05:59.422Z,37.10
2022-12-15T14:08:39.888Z,40.20
2022-12-15T14:11:51.939Z,37.10
2022-12-15T14:14:37.016Z,38.00
2022-12-15T14:17:09.115Z,39.30
2022-12-15T14:19:39.899Z,42.00
2022-12-15T14:22:30.681Z,36.90
2022-12-15T14:25:14.484Z,34.80
2022-12-15T14:27:42.697Z,34.60
2022-12-15T14:30:24.867Z,41.50
2022-12-15T14:32:56.635Z,37.80
2022-12-15T14:35:42.447Z,45.50
2022-12-15T14:38:26.336Z,39.10
2022-12-15T14:40:57.769Z,41.00
2022-12-15T14:43:32.518Z,42.90
2022-12-15T14:46:12.693Z,38.70
2022-12-15T14:48:49.668Z,41.70
2022-12-15T14:51:19.906Z,34.50
2022-12-15T14:56:40.327Z,34.60
2022-12-15T14:59:20.182Z,36.90
2022-12-15T15:01:58.536Z,37.60
2022-12-15T15:03:06.719Z,58.40
2022-12-15T15:03:14.540Z,35.50
2022-12-15T15:04:34.199Z,35.50
2022-12-15T15:07:06.271Z,34.20
2022-12-15T15:09:41.784Z,39.60
2022-12-15T15:12:17.402Z,42.50
2022-12-15T15:14:53.214Z,39.50
2022-12-15T15:17:37.121Z,42.20
2022-12-15T15:20:17.748Z,41.80
2022-12-15T15:22:48.282Z,38.60
2022-12-15T15:25:41.414Z,38.50
2022-12-15T15:28:10.020Z,41.90
2022-12-15T15:30:49.838Z,42.00
2022-12-15T15:33:24.780Z,43.00
2022-12-15T15:36:00.458Z,47.90
2022-12-15T15:38:35.602Z,46.90
2022-12-15T15:41:19.861Z,43.20
2022-12-15T15:43:48.741Z,44.90
2022-12-15T15:46:20.203Z,47.60
2022-12-15T15:49:09.497Z,44.50
2022-12-15T15:51:38.348Z,53.30
2022-12-15T15:54:14.005Z,60.00
2022-12-15T15:56:42.471Z,52.30
2022-12-15T15:59:17.511Z,53.50
2022-12-15T16:01:49.958Z,51.70
2022-12-15T16:04:18.687Z,53.70
2022-12-15T16:06:48.060Z,49.20
2022-12-15T16:09:17.063Z,46.70
2022-12-15T16:11:46.806Z,56.80
2022-12-15T16:14:17.083Z,57.20
2022-12-15T16:16:45.286Z,55.00
2022-12-15T16:19:13.544Z,51.80
2022-12-15T16:21:42.868Z,56.30
2022-12-15T16:24:16.116Z,63.00
2022-12-15T16:26:48.743Z,59.00
2022-12-15T16:29:20.037Z,61.90
2022-12-15T16:31:48.400Z,64.00
2022-12-15T16:34:20.509Z,63.20
2022-12-15T16:36:48.831Z,71.00
2022-12-15T16:39:29.209Z,79.10
2022-12-15T16:41:57.722Z,69.50
2022-12-15T16:44:29.391Z,76.50
2022-12-15T16:46:59.173Z,60.60
2022-12-15T16:49:35.056Z,56.90
2022-12-15T16:52:06.348Z,66.10
2022-12-15T16:54:36.700Z,55.70
2022-12-15T16:57:06.765Z,62.90
2022-12-15T16:59:35.945Z,57.50
2022-12-15T17:02:29.472Z,63.00
2022-12-15T17:04:57.771Z,60.20
2022-12-15T17:07:27.888Z,56.30
2022-12-15T17:09:57.167Z,54.90
2022-12-15T17:12:26.928Z,56.70
2022-12-15T17:14:54.942Z,50.30
2022-12-15T17:17:25.677Z,60.20
2022-12-15T17:20:28.082Z,56.90
2022-12-15T17:22:46.340Z,59.30
2022-12-15T17:25:33.275Z,53.80
2022-12-15T17:28:19.385Z,53.70
2022-12-15T17:30:53.249Z,54.60
2022-12-15T17:33:25.840Z,57.90
2022-12-15T17:36:03.773Z,60.80
2022-12-15T17:38:31.806Z,52.50
2022-12-15T17:41:01.625Z,48.90
2022-12-15T17:43:35.700Z,47.90
2022-12-15T17:46:04.241Z,46.90
2022-12-15T17:48:33.371Z,51.20
2022-12-15T17:51:01.905Z,42.80
2022-12-15T17:53:30.871Z,50.50
2022-12-15T17:55:59.144Z,43.20
2022-12-15T17:58:27.323Z,44.10
2022-12-15T18:00:56.571Z,68.10
2022-12-15T18:03:24.757Z,63.80
2022-12-15T18:05:53.812Z,52.00
2022-12-15T18:08:29.901Z,51.10
2022-12-15T18:10:58.260Z,44.30
2022-12-15T18:13:34.829Z,44.60
2022-12-15T18:16:07.652Z,47.50
2022-12-15T18:18:36.296Z,43.50
2022-12-15T18:21:14.080Z,48.60
2022-12-15T18:23:43.492Z,45.10
2022-12-15T18:26:15.122Z,47.50
2022-12-15T18:28:44.083Z,47.50
2022-12-15T18:31:26.271Z,44.50
2022-12-15T18:34:00.914Z,46.20
2022-12-15T18:36:30.953Z,42.50
2022-12-15T18:38:59.181Z,49.30
2022-12-15T18:41:27.955Z,47.30
2022-12-15T18:44:00.792Z,47.80
2022-12-15T18:46:28.875Z,45.80
2022-12-15T18:48:58.859Z,41.10
2022-12-15T18:51:26.959Z,41.60
2022-12-15T18:53:55.016Z,46.30
2022-12-15T18:56:23.858Z,46.60
2022-12-15T18:58:51.991Z,50.20
2022-12-15T19:01:20.096Z,58.80
2022-12-15T19:03:49.100Z,55.40
2022-12-15T19:06:34.856Z,63.60
2022-12-15T19:09:05.551Z,57.30
2022-12-15T19:11:35.924Z,55.30
2022-12-15T19:14:05.394Z,57.50
2022-12-15T19:16:59.570Z,51.70
2022-12-15T19:19:46.954Z,51.60
2022-12-15T19:22:28.085Z,54.40
2022-12-15T19:24:57.134Z,53.90
2022-12-15T19:27:26.571Z,53.10
2022-12-15T19:29:57.465Z,54.70
2022-12-15T19:32:26.896Z,45.30
2022-12-15T19:34:57.488Z,43.70
2022-12-15T19:37:29.005Z,44.70
2022-12-15T19:40:00.078Z,43.00
2022-12-15T19:42:33.649Z,41.60
2022-12-15T19:45:13.955Z,39.80
2022-12-15T19:47:41.922Z,41.90
2022-12-15T19:50:18.700Z,57.10
2022-12-15T19:52:50.482Z,49.60
2022-12-15T19:55:23.741Z,51.90
2022-12-15T19:57:51.737Z,62.90
2022-12-15T20:00:23.050Z,60.50
2022-12-15T20:02:54.700Z,59.10
2022-12-15T20:05:25.145Z,57.20
2022-12-15T20:07:54.008Z,62.80
2022-12-15T20:10:31.836Z,61.70
2022-12-15T20:13:03.349Z,56.20
2022-12-15T20:15:31.998Z,54.10
2022-12-15T20:18:01.215Z,61.40
2022-12-15T20:20:31.200Z,59.50
2022-12-15T20:23:04.274Z,63.90
2022-12-15T20:25:35.677Z,74.20
2022-12-15T20:28:10.407Z,52.50
2022-12-15T20:30:38.379Z,52.70
2022-12-15T20:33:06.843Z,53.20
2022-12-15T20:35:37.474Z,58.00
2022-12-15T20:38:28.163Z,57.50
2022-12-15T20:40:56.682Z,55.30
2022-12-15T20:43:26.636Z,65.80
2022-12-15T20:46:25.497Z,55.80
2022-12-15T20:48:55.377Z,64.00
2022-12-15T20:51:31.263Z,61.60
2022-12-15T20:54:02.543Z,63.50
2022-12-15T20:56:30.877Z,54.40
2022-12-15T20:58:59.824Z,58.40
2022-12-15T21:01:32.956Z,55.10
2022-12-15T21:04:04.478Z,56.60
2022-12-15T21:06:32.533Z,54.50
2022-12-15T21:09:01.136Z,51.30
2022-12-15T21:11:33.462Z,55.70
2022-12-15T21:14:06.715Z,56.20
2022-12-15T21:16:34.803Z,55.40
2022-12-15T21:19:20.960Z,59.60
2022-12-15T21:21:54.955Z,53.90
2022-12-15T21:24:27.226Z,47.90
2022-12-15T21:26:55.799Z,48.20
2022-12-15T21:29:26.191Z,56.90
2022-12-15T21:31:54.697Z,56.50
2022-12-15T21:34:22.973Z,59.60
2022-12-15T21:36:55.100Z,55.50
2022-12-15T21:39:29.394Z,59.30
2022-12-15T21:42:04.536Z,51.20
2022-12-15T21:44:32.570Z,52.30
2022-12-15T21:47:01.052Z,57.00
2022-12-15T21:49:31.522Z,54.40
2022-12-15T21:52:01.112Z,58.40
2022-12-15T21:54:36.307Z,58.50
2022-12-15T21:57:04.245Z,58.60
2022-12-15T21:59:33.233Z,49.80
2022-12-15T22:02:02.491Z,43.00
2022-12-15T22:04:35.505Z,50.50
2022-12-15T22:07:06.148Z,44.30
2022-12-15T22:09:34.107Z,46.60
2022-12-15T22:12:02.941Z,48.60
2022-12-15T22:14:34.255Z,43.20
2022-12-15T22:17:16.254Z,44.80
2022-12-15T22:19:44.660Z,44.10
2022-12-15T22:22:14.033Z,52.80
2022-12-15T22:24:42.397Z,41.90
2022-12-15T22:27:22.047Z,47.30
2022-12-15T22:29:50.549Z,49.20
2022-12-15T22:32:20.770Z,53.60
2022-12-15T22:34:48.832Z,61.10
2022-12-15T22:37:36.813Z,46.60
2022-12-15T22:40:05.245Z,48.30
2022-12-15T22:42:33.448Z,42.40
2022-12-15T22:45:02.415Z,48.70
2022-12-15T22:47:36.382Z,58.10
2022-12-15T22:50:06.181Z,43.30
2022-12-15T22:52:34.217Z,46.90
2022-12-15T22:55:02.275Z,47.00
2022-12-15T22:57:30.356Z,48.00
2022-12-15T23:00:07.983Z,49.30
2022-12-15T23:02:40.155Z,50.70
2022-12-15T23:05:10.080Z,53.00
2022-12-15T23:07:38.383Z,45.40
2022-12-15T23:10:25.824Z,45.40
2022-12-15T23:12:54.756Z,50.00
2022-12-15T23:15:43.429Z,51.00
2022-12-15T23:18:13.760Z,52.10
2022-12-15T23:20:42.625Z,42.80
2022-12-15T23:23:10.846Z,36.30
2022-12-15T23:25:39.003Z,32.20
2022-12-15T23:28:06.992Z,29.50
2022-12-15T23:30:35.600Z,31.40
2022-12-15T23:33:03.795Z,27.60
2022-12-15T23:35:31.655Z,25.90
2022-12-15T23:37:59.680Z,21.80
2022-12-15T23:40:27.711Z,27.70
2022-12-15T23:42:55.683Z,25.70
2022-12-15T23:45:24.028Z,36.90
2022-12-15T23:47:52.018Z,28.90
2022-12-15T23:50:22.215Z,32.80
2022-12-15T23:52:51.947Z,30.60
2022-12-15T23:55:20.485Z,31.00
2022-12-15T23:57:48.400Z,34.10
